Time;durP1;ratioP1;P1;durP2;ratioP2;P2;SDS_P1;SDS_P2;PMS_P1;PMS_P2;Temp;Humidity;BMP_temperature;BMP_pressure;BME280_temperature;BME280_humidity;BME280_pressure;Samples;Min_cycle;Max_cycle;Signal;HPM_P1;HPM_P2
2021/07/13 00:01:26;;;;;;;18.70;14.30;;;;;;;26.43;49.36;100074.94;5014574;28;20103;-6
2021/07/13 00:03:53;;;;;;;16.38;11.93;;;;;;;25.99;49.11;100036.78;4997194;28;20045;-7
2021/07/13 00:06:21;;;;;;;20.52;14.20;;;;;;;25.75;50.80;100036.66;5014874;28;20052;-7
2021/07/13 00:08:52;;;;;;;18.38;13.13;;;;;;;25.62;50.74;100028.59;5013807;28;20499;-6
2021/07/13 00:11:21;;;;;;;20.70;13.82;;;;;;;25.55;51.18;100036.16;5014242;28;20033;-6
2021/07/13 00:13:48;;;;;;;13.35;10.55;;;;;;;25.72;49.57;100036.84;5012929;28;20513;-6
2021/07/13 00:16:16;;;;;;;16.58;12.07;;;;;;;25.64;50.88;100028.47;5014088;28;20520;-7
2021/07/13 00:18:42;;;;;;;20.13;14.40;;;;;;;25.69;51.16;100037.06;5014219;28;20041;-6
2021/07/13 00:21:09;;;;;;;17.00;14.38;;;;;;;25.55;50.95;100016.56;5013988;28;20038;-6
2021/07/13 00:23:36;;;;;;;14.00;11.35;;;;;;;25.64;49.70;100021.28;5013843;28;20092;-6
2021/07/13 00:26:05;;;;;;;20.70;15.60;;;;;;;25.54;51.24;100021.06;5014176;28;20038;-8
2021/07/13 00:28:33;;;;;;;12.63;10.93;;;;;;;25.93;50.28;100078.25;5013792;28;20092;-7
2021/07/13 00:31:00;;;;;;;19.75;14.82;;;;;;;25.71;50.96;100027.97;5012903;28;20114;-7
2021/07/13 00:33:26;;;;;;;18.95;13.93;;;;;;;25.88;51.78;100082.22;5013782;28;20045;-7
2021/07/13 00:36:03;;;;;;;21.15;13.30;;;;;;;25.51;51.73;100020.41;5014073;28;20073;-6
2021/07/13 00:38:30;;;;;;;18.40;11.90;;;;;;;25.39;50.44;100009.53;5012454;28;20045;-6
2021/07/13 00:40:56;;;;;;;13.25;10.82;;;;;;;25.70;50.05;100036.09;5012456;28;20037;-7
2021/07/13 00:43:22;;;;;;;20.13;14.18;;;;;;;25.65;51.23;100027.53;5012700;28;20377;-6
2021/07/13 00:45:48;;;;;;;17.02;13.63;;;;;;;25.99;51.13;100079.66;5013839;28;20121;-6
2021/07/13 00:48:15;;;;;;;17.27;11.65;;;;;;;25.71;50.62;100027.97;4996231;28;20523;-8
2021/07/13 00:50:44;;;;;;;15.60;11.10;;;;;;;25.99;49.67;100057.38;5013728;28;20436;-6
2021/07/13 00:53:10;;;;;;;20.58;13.10;;;;;;;26.07;50.60;100068.44;5013395;28;20034;-6
2021/07/13 00:55:36;;;;;;;21.45;13.15;;;;;;;25.91;51.52;100090.88;5013415;28;20111;-6
2021/07/13 00:58:04;;;;;;;12.43;11.13;;;;;;;25.54;50.68;100034.44;5012471;28;20040;-6
2021/07/13 01:00:33;;;;;;;18.25;13.73;;;;;;;25.48;51.19;100017.94;5013767;28;20048;-6
2021/07/13 01:03:03;;;;;;;13.38;11.65;;;;;;;25.60;50.09;100030.50;5013435;28;20103;-7
2021/07/13 01:05:44;;;;;;;21.15;13.98;;;;;;;25.66;51.42;100039.94;5013594;28;20050;-6
2021/07/13 01:08:13;;;;;;;20.65;13.57;;;;;;;26.03;50.33;100091.03;5013791;28;20037;-8
2021/07/13 01:11:09;;;;;;;22.45;14.38;;;;;;;25.52;51.62;100040.84;5013255;28;20469;-6
2021/07/13 01:13:39;;;;;;;19.45;12.00;;;;;;;25.27;50.38;100029.91;5013252;28;20391;-8
2021/07/13 01:16:36;;;;;;;13.85;10.02;;;;;;;25.62;48.63;100094.63;5011999;28;20053;-5
2021/07/13 01:19:26;;;;;;;16.52;10.02;;;;;;;25.17;48.55;100042.16;5012032;28;20037;-8
2021/07/13 01:22:00;;;;;;;14.77;10.00;;;;;;;25.10;48.88;100033.69;5012060;28;20133;-6
2021/07/13 01:24:30;;;;;;;12.07;10.13;;;;;;;25.34;49.51;100042.88;5013522;28;20050;-6
2021/07/13 01:27:04;;;;;;;12.73;10.18;;;;;;;25.17;49.31;100039.47;5013200;28;20558;-6
2021/07/13 01:29:33;;;;;;;18.95;10.50;;;;;;;25.18;48.54;100041.22;4995651;28;20470;-6
2021/07/13 01:32:00;;;;;;;14.02;10.07;;;;;;;25.18;48.64;100038.53;5012853;28;20455;-6
2021/07/13 01:34:32;;;;;;;13.95;9.77;;;;;;;25.45;48.51;100093.06;5011299;28;20132;-6
2021/07/13 01:37:02;;;;;;;12.50;9.70;;;;;;;25.22;48.89;100053.41;5012853;28;20062;-6
2021/07/13 01:39:29;;;;;;;15.23;10.57;;;;;;;25.16;48.73;100042.25;5012756;28;20042;-6
2021/07/13 01:42:01;;;;;;;11.70;9.55;;;;;;;25.29;49.03;100035.16;5011777;28;20046;-6
2021/07/13 01:44:30;;;;;;;11.40;9.35;;;;;;;25.31;48.51;100014.50;5013341;28;20042;-6
2021/07/13 01:46:57;;;;;;;16.90;9.90;;;;;;;25.31;48.33;100048.44;5012152;28;20088;-7
2021/07/13 01:49:26;;;;;;;15.13;10.50;;;;;;;25.48;49.67;100066.97;5012606;28;20103;-6
2021/07/13 01:51:57;;;;;;;20.48;10.63;;;;;;;25.32;47.96;100021.59;5012772;28;20124;-6
2021/07/13 01:54:27;;;;;;;15.63;10.45;;;;;;;25.82;48.19;100091.50;5012866;28;20053;-7
2021/07/13 01:56:56;;;;;;;17.30;9.63;;;;;;;25.33;48.12;100017.97;5011408;28;20037;-6
2021/07/13 01:59:24;;;;;;;12.82;10.10;;;;;;;25.51;49.57;100037.31;5011354;28;20507;-6
2021/07/13 02:01:54;;;;;;;11.38;9.32;;;;;;;25.54;47.49;100039.81;5012716;28;20084;-6
2021/07/13 02:04:26;;;;;;;10.93;9.45;;;;;;;25.83;48.55;100053.06;5011431;28;20096;-7
2021/07/13 02:06:53;;;;;;;10.57;9.48;;;;;;;25.89;47.01;100041.94;5011630;28;20065;-6
2021/07/13 02:09:20;;;;;;;14.13;9.75;;;;;;;25.99;46.22;100049.34;5012772;28;20042;-6
2021/07/13 02:11:47;;;;;;;13.23;9.38;;;;;;;25.81;46.27;100028.19;5012464;28;20084;-6
2021/07/13 02:14:14;;;;;;;11.35;9.43;;;;;;;25.89;48.22;100039.25;5012873;28;20538;-6
2021/07/13 02:16:40;;;;;;;13.90;9.75;;;;;;;26.14;47.74;100059.06;5012730;28;20507;-6
2021/07/13 02:19:06;;;;;;;10.50;8.32;;;;;;;26.11;45.75;100061.06;5012570;28;20045;-6
2021/07/13 02:21:33;;;;;;;10.70;9.35;;;;;;;25.91;48.14;100039.16;5012650;28;20111;-6
2021/07/13 02:24:00;;;;;;;11.30;9.40;;;;;;;26.01;47.39;100042.03;5012695;28;20499;-6
2021/07/13 02:26:56;;;;;;;12.35;8.50;;;;;;;25.89;48.08;100060.69;5012328;28;20038;-6
2021/07/13 02:29:28;;;;;;;11.75;8.40;;;;;;;26.07;46.25;100095.25;5012535;28;20057;-6
2021/07/13 02:32:17;;;;;;;13.23;8.40;;;;;;;25.49;46.62;100033.00;5011319;28;20042;-6
2021/07/13 02:34:45;;;;;;;11.65;8.23;;;;;;;25.57;46.22;100038.75;5012165;28;20037;-6
2021/07/13 02:37:13;;;;;;;10.73;8.20;;;;;;;25.34;46.72;100049.09;5012392;28;20060;-8
2021/07/13 02:39:40;;;;;;;12.27;8.40;;;;;;;25.41;46.91;100054.97;5011060;28;20092;-6
2021/07/13 02:42:15;;;;;;;11.13;8.85;;;;;;;25.65;46.88;100067.69;5012654;28;20046;-7
2021/07/13 02:44:42;;;;;;;9.50;8.23;;;;;;;25.42;46.73;100046.81;5011499;28;20411;-6
2021/07/13 02:47:12;;;;;;;15.90;8.40;;;;;;;25.25;46.95;100041.66;5012860;28;20046;-6
2021/07/13 02:49:49;;;;;;;11.07;8.63;;;;;;;25.29;47.30;100032.47;5015936;28;20096;-6
2021/07/13 02:52:20;;;;;;;12.27;8.68;;;;;;;25.57;46.65;100041.41;5015978;28;20414;-6
2021/07/13 02:54:49;;;;;;;;;;;;;;;25.81;46.56;100099.63;5016396;28;20064;-6
2021/07/13 02:57:16;;;;;;;12.18;8.57;;;;;;;25.74;47.29;100043.81;5015612;28;19917;-6
2021/07/13 02:59:46;;;;;;;11.85;8.65;;;;;;;26.18;46.08;100092.69;5015582;28;20129;-6
2021/07/13 03:02:14;;;;;;;15.80;8.48;;;;;;;25.73;46.33;100041.25;5015436;28;20429;-6
2021/07/13 03:04:42;;;;;;;12.10;8.05;;;;;;;25.86;46.03;100071.59;5014318;28;20406;-8
2021/07/13 03:07:08;;;;;;;16.55;8.57;;;;;;;25.47;46.52;100034.94;5015736;28;20107;-6
2021/07/13 03:09:36;;;;;;;11.77;8.35;;;;;;;25.92;46.71;100103.31;5015856;28;20041;-8
2021/07/13 03:12:02;;;;;;;10.30;8.23;;;;;;;25.62;47.99;100041.97;5015490;28;20049;-8
2021/07/13 03:14:31;;;;;;;11.23;8.45;;;;;;;25.82;46.67;100078.09;5015313;28;20088;-5
2021/07/13 03:16:58;;;;;;;12.85;7.78;;;;;;;25.40;47.02;100053.22;5014025;28;20049;-5
2021/07/13 03:19:24;;;;;;;13.75;7.32;;;;;;;25.26;46.91;100046.91;5013876;28;20037;-6
2021/07/13 03:21:54;;;;;;;11.15;8.13;;;;;;;25.36;47.24;100049.03;5015299;28;20080;-6
2021/07/13 03:24:23;;;;;;;12.80;8.45;;;;;;;25.35;47.48;100045.50;5015423;28;20130;-6
2021/07/13 03:26:50;;;;;;;10.60;8.05;;;;;;;25.14;47.87;100039.69;5013799;28;20072;-7
2021/07/13 03:29:18;;;;;;;10.43;7.93;;;;;;;25.51;46.78;100049.84;5015646;28;20041;-6
2021/07/13 03:31:45;;;;;;;11.02;7.28;;;;;;;25.39;47.09;100046.16;5013959;28;20115;-8
2021/07/13 03:34:11;;;;;;;11.50;7.93;;;;;;;25.91;46.96;100093.56;5014877;28;20042;-7
2021/07/13 03:36:38;;;;;;;12.05;8.15;;;;;;;25.91;47.36;100040.00;5013906;28;20093;-8
2021/07/13 03:39:05;;;;;;;13.70;8.02;;;;;;;25.95;46.48;100066.59;5015097;28;20410;-7
2021/07/13 03:41:32;;;;;;;11.38;7.45;;;;;;;25.56;46.49;100029.81;5014949;28;20513;-6
2021/07/13 03:44:01;;;;;;;11.13;7.43;;;;;;;25.63;46.46;100045.50;5013481;28;20046;-6
2021/07/13 03:46:34;;;;;;;14.30;7.80;;;;;;;25.88;47.64;100071.50;5014918;28;20053;-7
2021/07/13 03:49:03;;;;;;;8.73;7.45;;;;;;;25.78;47.40;100049.81;5014582;28;20044;-6
2021/07/13 03:51:40;;;;;;;8.50;7.03;;;;;;;26.34;47.14;100107.72;5013217;28;20050;-6
2021/07/13 03:54:08;;;;;;;8.88;7.47;;;;;;;26.16;46.45;100041.03;5014846;28;20503;-6
2021/07/13 03:56:35;;;;;;;10.32;7.50;;;;;;;26.48;45.77;100096.03;5014735;28;20038;-6
2021/07/13 03:59:02;;;;;;;9.55;8.20;;;;;;;26.37;46.97;100078.91;5013722;28;20041;-8
2021/07/13 04:01:28;;;;;;;11.07;7.43;;;;;;;25.99;46.40;100044.84;5014681;28;20046;-6
2021/07/13 04:03:54;;;;;;;13.80;8.15;;;;;;;25.88;46.44;100067.00;5014256;28;20064;-6
2021/07/13 04:06:20;;;;;;;8.57;6.72;;;;;;;26.00;46.19;100076.03;5014711;28;20046;-6
2021/07/13 04:08:46;;;;;;;11.38;7.03;;;;;;;25.92;46.46;100084.56;5014740;28;20046;-6
2021/07/13 04:11:12;;;;;;;10.35;7.20;;;;;;;25.56;46.66;100051.25;5013007;28;20049;-6
2021/07/13 04:13:38;;;;;;;7.97;6.97;;;;;;;25.65;47.02;100081.91;5014137;28;20496;-6
2021/07/13 04:16:04;;;;;;;10.02;7.05;;;;;;;25.40;46.89;100050.56;5014362;28;20053;-6
2021/07/13 04:18:30;;;;;;;8.07;6.82;;;;;;;25.44;47.70;100046.72;5014070;28;20045;-6
2021/07/13 04:20:56;;;;;;;11.20;6.60;;;;;;;25.54;46.58;100045.16;5014039;28;20049;-7
2021/07/13 04:23:22;;;;;;;9.93;6.93;;;;;;;25.64;47.27;100064.13;5013954;28;20041;-6
2021/07/13 04:25:48;;;;;;;9.70;7.50;;;;;;;25.85;47.28;100091.31;5012820;28;20049;-7
2021/07/13 04:28:15;;;;;;;9.23;6.85;;;;;;;25.61;47.49;100072.38;5013852;28;20049;-6
2021/07/13 04:30:41;;;;;;;9.50;6.53;;;;;;;25.84;47.46;100094.94;5014098;28;20041;-6
2021/07/13 04:33:07;;;;;;;12.77;6.97;;;;;;;25.50;47.69;100038.28;5013600;28;20092;-6
2021/07/13 04:35:33;;;;;;;8.10;6.80;;;;;;;25.72;47.54;100036.84;5014005;28;20045;-6
2021/07/13 04:37:58;;;;;;;10.43;7.05;;;;;;;25.91;47.45;100053.38;5012865;28;20061;-6
2021/07/13 04:40:24;;;;;;;8.00;7.20;;;;;;;26.16;47.36;100075.00;5013658;28;20045;-6
2021/07/13 04:42:52;;;;;;;10.80;7.40;;;;;;;26.11;46.66;100064.59;5012463;28;20073;-6
2021/07/13 04:45:18;;;;;;;13.30;7.20;;;;;;;26.20;46.64;100079.19;5013465;28;20128;-6
2021/07/13 04:47:44;;;;;;;9.00;6.93;;;;;;;26.59;46.72;100093.47;5013470;28;20070;-6
2021/07/13 04:50:11;;;;;;;9.85;7.28;;;;;;;26.34;46.36;100060.34;5014062;28;20053;-6
2021/07/13 04:52:37;;;;;;;17.40;7.15;;;;;;;26.41;46.67;100071.50;5012082;28;20064;-7
2021/07/13 04:55:04;;;;;;;10.15;7.28;;;;;;;26.27;47.04;100077.81;5013445;28;20049;-7
2021/07/13 04:57:30;;;;;;;13.82;7.00;;;;;;;26.12;46.97;100070.84;5013440;28;20087;-6
2021/07/13 04:59:56;;;;;;;9.18;7.20;;;;;;;26.10;46.94;100033.44;5013619;28;20034;-6
2021/07/13 05:02:22;;;;;;;10.95;7.15;;;;;;;26.51;46.79;100083.28;5013324;28;20395;-8
2021/07/13 05:04:48;;;;;;;11.55;7.53;;;;;;;26.16;46.64;100024.94;5012098;28;20042;-6
2021/07/13 05:07:14;;;;;;;10.05;7.00;;;;;;;26.50;47.04;100086.09;5011952;28;20057;-7
2021/07/13 05:09:41;;;;;;;9.00;7.10;;;;;;;26.63;46.74;100089.59;5012773;28;20044;-7
2021/07/13 05:12:07;;;;;;;9.38;7.47;;;;;;;26.48;46.74;100079.94;5013302;28;20059;-6
2021/07/13 05:14:35;;;;;;;8.95;7.47;;;;;;;26.61;46.68;100070.13;5013241;28;20505;-6
2021/07/13 05:17:04;;;;;;;13.00;7.40;;;;;;;26.83;46.17;100074.84;5013143;28;20041;-6
2021/07/13 05:19:32;;;;;;;9.90;7.20;;;;;;;26.94;46.17;100081.28;5013035;28;20096;-6
2021/07/13 05:22:02;;;;;;;8.57;6.85;;;;;;;27.12;45.70;100077.25;5011747;28;20499;-6
2021/07/13 05:24:28;;;;;;;10.00;7.15;;;;;;;27.11;46.05;100077.38;5013572;28;20052;-6
2021/07/13 05:26:55;;;;;;;9.40;7.32;;;;;;;27.08;45.72;100063.19;5013118;28;20042;-6
2021/07/13 05:29:21;;;;;;;11.32;6.78;;;;;;;27.30;45.25;100060.75;5012904;28;20052;-8
2021/07/13 05:31:47;;;;;;;11.52;7.80;;;;;;;27.26;46.09;100088.81;5012901;28;20041;-7
2021/07/13 05:34:15;;;;;;;11.57;7.60;;;;;;;27.16;45.42;100043.84;5013114;28;20068;-6
2021/07/13 05:36:41;;;;;;;12.95;7.13;;;;;;;27.34;46.24;100089.97;5012787;28;20054;-8
2021/07/13 05:39:08;;;;;;;12.02;7.55;;;;;;;27.37;45.69;100081.69;5013318;28;20124;-6
2021/07/13 05:41:37;;;;;;;10.27;7.80;;;;;;;27.55;44.99;100098.28;5012226;28;20081;-6
2021/07/13 05:44:08;;;;;;;12.73;9.18;;;;;;;27.73;44.40;100092.53;5012695;28;20042;-6
2021/07/13 05:46:34;;;;;;;;;;;;;;;27.76;44.59;100089.63;5013728;28;20116;-6
2021/07/13 05:49:01;;;;;;;8.43;7.57;;;;;;;27.89;44.39;100084.19;5011380;28;19922;-7
2021/07/13 05:51:27;;;;;;;8.52;6.72;;;;;;;27.89;43.26;100093.06;5012995;28;20042;-6
2021/07/13 05:53:55;;;;;;;10.00;6.90;;;;;;;27.89;43.80;100090.41;5012601;28;20069;-8
2021/07/13 05:56:25;;;;;;;8.93;6.88;;;;;;;27.94;43.11;100086.50;5012890;28;20045;-7
2021/07/13 05:58:51;;;;;;;7.18;6.03;;;;;;;27.90;42.73;100088.59;5011443;28;20046;-7
2021/07/13 06:01:17;;;;;;;9.18;6.93;;;;;;;27.84;43.29;100086.34;5012888;28;20538;-7
2021/07/13 06:03:44;;;;;;;8.88;7.40;;;;;;;27.87;44.12;100078.94;5012682;28;20136;-7
2021/07/13 06:06:10;;;;;;;9.10;7.05;;;;;;;28.06;43.72;100077.56;5013037;28;20057;-7
2021/07/13 06:08:36;;;;;;;14.70;7.70;;;;;;;27.89;44.34;100057.31;5012526;28;20522;-16
2021/07/13 06:11:02;;;;;;;15.10;7.13;;;;;;;28.02;43.65;100078.75;5012899;28;20499;-7
2021/07/13 06:13:28;;;;;;;9.85;7.63;;;;;;;28.18;43.30;100083.81;5027820;28;20049;-6
2021/07/13 06:15:55;;;;;;;12.63;8.48;;;;;;;28.26;43.84;100076.00;5032153;28;20052;-7
2021/07/13 06:18:22;;;;;;;8.40;7.10;;;;;;;28.03;44.18;100072.38;5031938;28;20132;-6
2021/07/13 06:20:48;;;;;;;11.82;6.72;;;;;;;28.16;44.12;100078.56;5048550;28;20045;-10
2021/07/13 06:23:14;;;;;;;11.32;7.57;;;;;;;28.28;43.46;100074.06;5050701;28;20041;-7
2021/07/13 06:25:42;;;;;;;10.27;7.45;;;;;;;28.38;43.06;100061.63;5036105;28;20387;-7
2021/07/13 06:28:09;;;;;;;13.95;8.05;;;;;;;28.33;43.16;100041.44;5034878;28;20049;-8
2021/07/13 06:30:35;;;;;;;9.43;7.88;;;;;;;28.44;41.77;100062.97;5034410;28;20124;-7
2021/07/13 06:33:03;;;;;;;11.98;7.57;;;;;;;28.58;42.64;100074.47;5035843;28;20056;-7
2021/07/13 06:35:29;;;;;;;14.90;8.57;;;;;;;28.61;42.71;100077.78;5035573;28;20114;-7
2021/07/13 06:37:57;;;;;;;13.68;8.32;;;;;;;28.69;42.50;100086.16;5035454;28;20572;-7
2021/07/13 06:40:24;;;;;;;10.50;7.47;;;;;;;28.81;41.07;100087.00;5034447;28;20045;-6
2021/07/13 06:42:50;;;;;;;8.02;6.70;;;;;;;28.77;40.41;100074.75;5035500;28;20036;-7
2021/07/13 06:45:16;;;;;;;11.35;7.45;;;;;;;28.69;42.56;100082.56;5035542;28;20037;-7
2021/07/13 06:47:42;;;;;;;9.65;7.35;;;;;;;28.75;42.37;100075.84;5035573;28;20045;-6
2021/07/13 06:50:09;;;;;;;8.85;7.20;;;;;;;28.72;41.05;100090.41;5034270;28;20045;-6
2021/07/13 06:52:35;;;;;;;7.80;6.38;;;;;;;28.76;38.70;100085.63;5035627;28;20470;-8
2021/07/13 06:55:07;;;;;;;10.18;7.18;;;;;;;28.71;39.92;100086.00;5035482;28;20436;-8
2021/07/13 06:57:35;;;;;;;7.57;6.80;;;;;;;28.79;40.63;100085.41;5035863;28;20127;-7
2021/07/13 07:00:02;;;;;;;7.75;7.00;;;;;;;28.74;40.50;100069.63;5035301;28;20056;-8
2021/07/13 07:02:28;;;;;;;8.25;6.78;;;;;;;28.75;39.05;100075.84;5033981;28;20045;-7
2021/07/13 07:04:54;;;;;;;9.55;7.75;;;;;;;28.57;41.21;100027.91;5035119;28;20041;-7
2021/07/13 07:07:21;;;;;;;9.52;7.30;;;;;;;28.94;38.74;100072.56;5035442;28;20429;-6
2021/07/13 07:09:47;;;;;;;8.73;6.93;;;;;;;28.98;39.51;100068.63;5035202;28;20067;-7
2021/07/13 07:12:13;;;;;;;11.35;7.85;;;;;;;29.04;40.67;100073.53;5034921;28;20056;-8
2021/07/13 07:14:39;;;;;;;10.15;6.95;;;;;;;29.06;39.35;100074.28;5035087;28;20048;-7
2021/07/13 07:17:05;;;;;;;8.90;7.43;;;;;;;29.02;40.69;100070.09;5033554;28;20449;-7
2021/07/13 07:19:31;;;;;;;8.55;7.25;;;;;;;29.09;39.59;100086.63;5034512;28;20051;-7
2021/07/13 07:21:57;;;;;;;10.07;7.05;;;;;;;29.15;39.58;100069.94;5034897;28;20394;-7
2021/07/13 07:24:23;;;;;;;8.35;7.20;;;;;;;29.19;40.60;100076.78;5034566;28;20048;-7
2021/07/13 07:26:49;;;;;;;8.38;7.55;;;;;;;29.21;39.38;100064.91;5017046;28;20041;-7
2021/07/13 07:29:16;;;;;;;13.60;8.40;;;;;;;29.34;38.95;100072.03;5035204;28;20184;-7
2021/07/13 07:31:43;;;;;;;8.30;7.13;;;;;;;29.26;40.11;100063.72;5034961;28;20104;-11
2021/07/13 07:34:09;;;;;;;12.77;7.70;;;;;;;29.34;38.37;100058.56;5032946;28;20537;-7
2021/07/13 07:36:35;;;;;;;9.25;7.82;;;;;;;29.46;37.93;100054.84;5034505;28;21666;-8
2021/07/13 07:39:03;;;;;;;8.85;7.22;;;;;;;29.64;37.67;100062.41;5034748;28;20042;-7
2021/07/13 07:41:30;;;;;;;10.73;7.93;;;;;;;29.54;40.07;100057.78;5034445;28;20107;-7
2021/07/13 07:43:56;;;;;;;11.13;8.38;;;;;;;29.42;40.13;100044.47;5034905;28;20052;-7
2021/07/13 07:46:22;;;;;;;11.98;7.38;;;;;;;29.80;37.74;100046.66;5034420;28;20067;-7
2021/07/13 07:48:48;;;;;;;8.00;7.18;;;;;;;29.86;38.02;100050.69;5034296;28;20049;-7
2021/07/13 07:51:14;;;;;;;8.88;7.72;;;;;;;29.78;37.77;100053.16;5034255;28;20037;-7
2021/07/13 07:53:40;;;;;;;12.10;7.45;;;;;;;29.66;37.76;100063.13;5032926;28;20080;-6
2021/07/13 07:56:06;;;;;;;10.23;8.38;;;;;;;29.64;38.77;100046.25;5032785;28;20120;-7
2021/07/13 07:58:33;;;;;;;8.48;7.45;;;;;;;29.57;38.31;100055.81;5034217;28;20041;-9
2021/07/13 08:00:59;;;;;;;10.07;7.25;;;;;;;29.56;37.50;100060.34;5034182;28;20073;-8
2021/07/13 08:03:25;;;;;;;10.20;7.68;;;;;;;29.56;37.04;100052.28;5034161;28;20049;-7
2021/07/13 08:05:55;;;;;;;9.15;7.93;;;;;;;29.50;39.71;100048.25;5033958;28;20076;-8
2021/07/13 08:08:23;;;;;;;9.98;7.60;;;;;;;29.45;37.84;100045.09;5034026;28;20092;-7
2021/07/13 08:10:49;;;;;;;8.45;7.22;;;;;;;29.49;37.63;100041.16;5034255;28;20462;-7
2021/07/13 08:13:16;;;;;;;9.45;8.38;;;;;;;29.52;39.84;100043.59;5033926;28;20175;-8
2021/07/13 08:15:42;;;;;;;8.15;6.95;;;;;;;29.74;36.64;100036.41;5033845;28;20128;-6
2021/07/13 08:18:08;;;;;;;9.82;7.15;;;;;;;29.68;36.95;100015.34;5032563;28;20090;-7
2021/07/13 08:20:36;;;;;;;9.80;7.68;;;;;;;29.72;37.56;100029.44;5032571;28;20083;-7
2021/07/13 08:23:02;;;;;;;10.75;7.82;;;;;;;29.60;36.83;100023.25;5033987;28;20083;-7
2021/07/13 08:25:28;;;;;;;10.40;8.07;;;;;;;29.69;36.83;100028.69;5033552;28;20422;-7
2021/07/13 08:27:54;;;;;;;9.57;7.90;;;;;;;29.91;37.21;100034.13;5033471;28;20504;-8
2021/07/13 08:30:20;;;;;;;11.30;7.10;;;;;;;29.91;35.80;100028.75;5033529;28;20052;-8
2021/07/13 08:32:46;;;;;;;10.02;7.38;;;;;;;30.18;34.81;100021.00;5033641;28;20088;-7
2021/07/13 08:35:13;;;;;;;8.93;7.20;;;;;;;30.39;36.67;100020.13;5033452;28;20056;-8
2021/07/13 08:37:40;;;;;;;8.23;7.35;;;;;;;30.64;33.71;100020.69;5031977;28;20053;-8
2021/07/13 08:40:12;;;;;;;7.97;7.15;;;;;;;30.37;34.44;100003.22;5023957;28;20049;-7
2021/07/13 08:42:42;;;;;;;10.45;7.70;;;;;;;30.44;34.47;100027.78;5033545;28;20172;-8
2021/07/13 08:45:11;;;;;;;11.03;7.70;;;;;;;30.50;35.44;100022.75;5032213;28;20188;-7
2021/07/13 08:47:39;;;;;;;13.07;7.97;;;;;;;30.28;35.40;99991.38;5033066;28;20446;-7
2021/07/13 08:50:08;;;;;;;16.35;8.35;;;;;;;30.39;37.87;100022.81;5029157;28;20514;-8
2021/07/13 08:52:35;;;;;;;9.73;8.02;;;;;;;30.38;36.43;100009.44;5032023;28;20068;-8
2021/07/13 08:55:03;;;;;;;10.38;8.10;;;;;;;30.35;37.88;100018.66;5032811;28;20040;-8
2021/07/13 08:57:29;;;;;;;10.05;7.78;;;;;;;30.36;35.35;100021.25;5033096;28;20073;-8
2021/07/13 08:59:55;;;;;;;10.82;9.02;;;;;;;30.31;37.40;100018.09;5032776;28;20045;-8
2021/07/13 09:02:22;;;;;;;9.45;7.70;;;;;;;30.50;34.91;100014.66;5026232;28;20042;-8
2021/07/13 09:04:49;;;;;;;10.07;7.80;;;;;;;30.43;34.67;100013.47;5023584;28;20042;-8
2021/07/13 09:07:18;;;;;;;14.98;9.32;;;;;;;30.34;35.08;99990.00;5013268;28;20491;-8
2021/07/13 09:09:48;;;;;;;11.18;9.00;;;;;;;30.46;35.62;99998.84;5013071;28;20454;-7
2021/07/13 09:12:23;;;;;;;9.93;8.38;;;;;;;30.92;34.98;100018.22;5023261;28;20568;-7
2021/07/13 09:15:00;;;;;;;10.40;8.40;;;;;;;30.82;36.60;100013.66;5030355;28;20053;-8
2021/07/13 09:17:43;;;;;;;11.80;9.30;;;;;;;30.31;37.39;100010.00;5033064;28;20046;-7
2021/07/13 09:20:27;;;;;;;10.38;8.95;;;;;;;30.69;35.27;100013.03;5033040;28;20047;-7
2021/07/13 09:23:00;;;;;;;13.05;9.02;;;;;;;30.61;35.27;100020.94;5028606;28;20041;-8
2021/07/13 09:25:40;;;;;;;15.95;10.07;;;;;;;30.15;37.10;99955.69;5012081;28;20048;-8
2021/07/13 09:28:10;;;;;;;13.45;9.48;;;;;;;30.50;37.06;100000.31;5028433;28;20041;-8
2021/07/13 09:30:39;;;;;;;14.18;8.20;;;;;;;30.77;36.64;99991.63;5018572;28;20044;-8
2021/07/13 09:33:24;;;;;;;11.98;8.40;;;;;;;30.90;35.87;100009.38;5028130;28;20037;-7
2021/07/13 09:35:58;;;;;;;15.32;9.73;;;;;;;30.89;36.88;100003.16;5013876;28;20048;-7
2021/07/13 09:38:26;;;;;;;16.23;9.50;;;;;;;30.75;37.49;100017.03;5015617;28;20046;-7
2021/07/13 09:41:11;;;;;;;8.48;7.43;;;;;;;30.79;33.79;99995.00;5019893;28;20042;-7
2021/07/13 09:43:42;;;;;;;10.73;7.80;;;;;;;30.83;34.50;99999.16;5019002;28;20458;-7
2021/07/13 09:46:34;;;;;;;17.33;9.70;;;;;;;31.13;33.88;100004.66;5013872;28;20124;-7
2021/07/13 09:49:26;;;;;;;10.27;7.60;;;;;;;31.43;34.38;100011.81;5014812;28;20056;-8
2021/07/13 09:52:00;;;;;;;8.55;7.75;;;;;;;30.99;34.55;99968.09;5029211;28;20064;-8
2021/07/13 09:54:43;;;;;;;9.35;8.13;;;;;;;30.88;34.21;99977.16;5013756;28;20055;-8
2021/07/13 09:57:23;;;;;;;12.07;8.35;;;;;;;30.64;34.52;99929.81;5036376;28;20045;-9
2021/07/13 09:59:53;;;;;;;15.38;8.85;;;;;;;30.88;34.92;99949.31;5031988;28;20049;-9
2021/07/13 10:02:28;;;;;;;14.35;9.10;;;;;;;31.01;35.14;99993.09;5023005;28;20045;-8
2021/07/13 10:05:08;;;;;;;14.73;8.30;;;;;;;31.00;34.31;99985.97;5035020;28;20502;-6
2021/07/13 10:07:47;;;;;;;10.57;8.43;;;;;;;30.97;35.28;99987.09;5027703;28;20418;-6
2021/07/13 10:10:18;;;;;;;9.50;8.60;;;;;;;30.84;34.94;99963.06;5022756;28;20042;-5
2021/07/13 10:12:49;;;;;;;8.90;8.00;;;;;;;30.92;34.51;99972.34;5019942;28;20041;-7
2021/07/13 10:15:19;;;;;;;13.23;10.30;;;;;;;31.12;34.80;99990.31;5030228;28;20414;-6
2021/07/13 10:17:48;;;;;;;10.93;8.63;;;;;;;30.96;36.87;99973.75;5022575;28;20041;-8
2021/07/13 10:20:16;;;;;;;9.50;8.38;;;;;;;30.95;34.71;99993.63;5025732;28;20072;-7
2021/07/13 10:22:45;;;;;;;11.68;8.23;;;;;;;30.75;34.71;99955.81;5022245;28;20042;-9
2021/07/13 10:25:12;;;;;;;10.88;8.55;;;;;;;31.09;34.39;99960.03;5027578;28;20417;-7
2021/07/13 10:27:41;;;;;;;10.40;8.50;;;;;;;31.13;34.59;99981.22;5019121;28;20051;-7
2021/07/13 10:30:28;;;;;;;11.43;8.63;;;;;;;31.15;37.03;99978.38;5026786;28;20037;-9
2021/07/13 10:32:56;;;;;;;12.32;9.20;;;;;;;31.22;33.89;99978.66;5012157;28;20049;-7
2021/07/13 10:35:24;;;;;;;9.63;8.27;;;;;;;31.14;34.52;99939.69;5019049;28;20416;-8
2021/07/13 10:38:13;;;;;;;9.85;8.80;;;;;;;31.42;34.96;99985.78;5025189;28;20507;-7
2021/07/13 10:40:40;;;;;;;9.90;8.90;;;;;;;31.37;34.04;99985.34;5016078;28;20056;-7
2021/07/13 10:43:27;;;;;;;11.98;8.20;;;;;;;31.40;34.53;99970.72;5020185;28;20064;-7
2021/07/13 10:46:13;;;;;;;11.63;8.23;;;;;;;31.65;33.47;99975.59;5023232;28;20120;-7
2021/07/13 10:49:12;;;;;;;;;;;;;;;31.78;33.18;99958.19;5034549;28;20043;-8
2021/07/13 10:51:38;;;;;;;9.18;7.43;;;;;;;31.66;32.88;99977.25;5020730;28;20329;-7
2021/07/13 10:54:06;;;;;;;8.18;7.43;;;;;;;31.46;32.30;99954.78;5023484;28;20128;-7
2021/07/13 10:56:32;;;;;;;11.88;7.75;;;;;;;31.55;36.30;99973.81;5021783;28;20457;-7
2021/07/13 10:58:58;;;;;;;8.70;7.35;;;;;;;31.59;32.73;99976.13;5033658;28;20480;-7
2021/07/13 11:01:34;;;;;;;9.15;7.75;;;;;;;31.63;32.61;99961.34;5026796;28;20079;-8
2021/07/13 11:04:06;;;;;;;10.02;7.53;;;;;;;31.50;36.06;99964.31;5019274;28;20438;-7
2021/07/13 11:07:05;;;;;;;9.32;7.13;;;;;;;31.63;31.83;99971.31;5024160;28;20120;-7
2021/07/13 11:09:37;;;;;;;8.68;7.70;;;;;;;31.53;35.47;99944.25;5020081;28;20038;-7
2021/07/13 11:12:13;;;;;;;8.13;7.28;;;;;;;31.65;31.05;99964.78;5031106;28;20045;-7
2021/07/13 11:14:56;;;;;;;7.22;6.43;;;;;;;31.93;31.28;99962.16;5006094;28;20100;-6
2021/07/13 11:17:25;;;;;;;11.45;6.75;;;;;;;31.89;34.25;99919.31;5025643;28;20472;-7
2021/07/13 11:19:58;;;;;;;7.97;7.15;;;;;;;32.21;33.55;99959.53;5022704;28;20040;-6
2021/07/13 11:22:26;;;;;;;10.15;7.20;;;;;;;32.21;31.44;99958.69;5031076;28;20517;-7
2021/07/13 11:24:52;;;;;;;11.05;7.25;;;;;;;32.18;35.79;99959.84;5024322;28;20050;-8
2021/07/13 11:27:18;;;;;;;9.75;7.20;;;;;;;32.52;34.94;99955.72;5024921;28;20374;-8
2021/07/13 11:29:52;;;;;;;15.13;7.88;;;;;;;32.23;35.97;99953.97;5022888;28;20534;-8
2021/07/13 11:32:24;;;;;;;12.70;7.32;;;;;;;32.46;31.63;99947.19;5022294;28;20050;-7
2021/07/13 11:35:16;;;;;;;10.55;8.27;;;;;;;32.35;31.22;99952.78;5022126;28;20041;-7
2021/07/13 11:37:42;;;;;;;9.55;8.23;;;;;;;32.20;31.92;99946.16;5019280;28;20056;-6
2021/07/13 11:40:09;;;;;;;8.95;8.00;;;;;;;32.35;31.51;99957.38;5024522;28;20037;-6